Time;durP1;ratioP1;P1;durP2;ratioP2;P2;SDS_P1;SDS_P2;PMS_P1;PMS_P2;Temp;Humidity;BMP_temperature;BMP_pressure;BME280_temperature;BME280_humidity;BME280_pressure;Samples;Min_cycle;Max_cycle;Signal;HPM_P1;HPM_P2
2019/07/01 00:02:41;;;;;;;3.97;2.99;;;;;;;23.80;56.90;100426.98;;;;-66
2019/07/01 00:05:41;;;;;;;2.93;2.67;;;;;;;23.79;56.86;100425.77;;;;-64
2019/07/01 00:08:41;;;;;;;3.28;2.98;;;;;;;23.78;56.86;100416.30;;;;-63
2019/07/01 00:11:41;;;;;;;4.10;2.85;;;;;;;23.78;56.88;100413.67;;;;-63
2019/07/01 00:14:41;;;;;;;4.49;2.79;;;;;;;23.78;56.94;100416.34;;;;-64
2019/07/01 00:17:41;;;;;;;3.10;2.75;;;;;;;23.77;56.92;100424.00;;;;-63
2019/07/01 00:20:41;;;;;;;3.19;2.89;;;;;;;23.77;56.89;100424.67;;;;-64
2019/07/01 00:23:41;;;;;;;3.31;2.89;;;;;;;23.76;56.93;100421.61;;;;-64
2019/07/01 00:26:41;;;;;;;3.75;2.92;;;;;;;23.77;56.93;100425.69;;;;-63
2019/07/01 00:29:41;;;;;;;3.20;2.86;;;;;;;23.77;56.96;100420.80;;;;-64
2019/07/01 00:32:41;;;;;;;3.30;2.99;;;;;;;23.76;56.93;100415.38;;;;-64
2019/07/01 00:35:41;;;;;;;3.22;2.92;;;;;;;23.77;56.96;100410.34;;;;-64
2019/07/01 00:38:41;;;;;;;2.89;2.58;;;;;;;23.75;56.98;100403.37;;;;-65
2019/07/01 00:41:41;;;;;;;3.52;2.81;;;;;;;23.75;56.96;100398.48;;;;-64
2019/07/01 00:44:41;;;;;;;3.22;2.92;;;;;;;23.76;56.97;100395.04;;;;-65
2019/07/01 00:47:41;;;;;;;2.99;2.73;;;;;;;23.75;56.97;100397.64;;;;-64
2019/07/01 00:50:41;;;;;;;3.14;2.84;;;;;;;23.75;56.99;100402.70;;;;-64
2019/07/01 00:53:41;;;;;;;3.01;2.67;;;;;;;23.75;56.99;100402.70;;;;-63
2019/07/01 00:56:41;;;;;;;3.14;2.84;;;;;;;23.74;56.99;100405.27;;;;-66
2019/07/01 00:59:41;;;;;;;3.06;2.69;;;;;;;23.74;57.00;100404.52;;;;-63
2019/07/01 01:02:40;;;;;;;2.88;2.68;;;;;;;23.74;57.00;100406.62;;;;-66
2019/07/01 01:05:41;;;;;;;3.12;2.77;;;;;;;23.74;56.98;100401.73;;;;-66
2019/07/01 01:08:41;;;;;;;2.98;2.78;;;;;;;23.73;56.98;100395.56;;;;-63
2019/07/01 01:11:41;;;;;;;3.82;2.90;;;;;;;23.73;57.01;100398.87;;;;-63
2019/07/01 01:14:41;;;;;;;2.81;2.60;;;;;;;23.73;57.01;100404.67;;;;-64
2019/07/01 01:17:41;;;;;;;2.91;2.71;;;;;;;23.73;56.99;100413.10;;;;-64
2019/07/01 01:20:41;;;;;;;2.97;2.77;;;;;;;23.73;57.02;100420.25;;;;-64
2019/07/01 01:23:41;;;;;;;3.93;2.85;;;;;;;23.73;57.02;100433.24;;;;-63
2019/07/01 01:26:41;;;;;;;3.07;2.71;;;;;;;23.73;57.04;100439.23;;;;-63
2019/07/01 01:29:41;;;;;;;3.01;2.71;;;;;;;23.73;57.02;100433.75;;;;-65
2019/07/01 01:32:41;;;;;;;2.89;2.69;;;;;;;23.72;57.00;100420.33;;;;-64
2019/07/01 01:35:41;;;;;;;3.52;2.81;;;;;;;23.72;57.00;100429.09;;;;-66
2019/07/01 01:38:41;;;;;;;2.92;2.58;;;;;;;23.72;57.06;100431.36;;;;-63
2019/07/01 01:41:41;;;;;;;3.03;2.81;;;;;;;23.71;57.03;100421.14;;;;-63
2019/07/01 01:44:41;;;;;;;2.87;2.67;;;;;;;23.71;57.04;100423.33;;;;-63
2019/07/01 01:47:41;;;;;;;3.06;2.76;;;;;;;23.71;57.04;100420.30;;;;-63
2019/07/01 01:50:40;;;;;;;2.99;2.79;;;;;;;23.71;57.04;100424.01;;;;-63
2019/07/01 01:53:41;;;;;;;4.05;2.77;;;;;;;23.70;57.06;100432.41;;;;-66
2019/07/01 01:56:41;;;;;;;2.80;2.60;;;;;;;23.71;57.09;100441.55;;;;-64
2019/07/01 01:59:40;;;;;;;2.91;2.70;;;;;;;23.71;57.04;100459.16;;;;-64
2019/07/01 02:02:41;;;;;;;2.70;2.50;;;;;;;23.70;57.08;100450.55;;;;-64
2019/07/01 02:05:42;;;;;;;2.83;2.63;;;;;;;23.69;57.06;100443.85;;;;-52
2019/07/01 02:08:41;;;;;;;2.83;2.63;;;;;;;23.70;57.07;100436.63;;;;-52
2019/07/01 02:11:41;;;;;;;2.89;2.69;;;;;;;23.70;57.08;100438.59;;;;-50
2019/07/01 02:14:41;;;;;;;2.79;2.59;;;;;;;23.70;57.08;100436.97;;;;-51
2019/07/01 02:17:41;;;;;;;2.79;2.59;;;;;;;23.70;57.10;100439.50;;;;-53
2019/07/01 02:20:41;;;;;;;3.71;2.59;;;;;;;23.69;57.07;100453.73;;;;-50
2019/07/01 02:23:42;;;;;;;2.95;2.68;;;;;;;23.70;57.05;100460.91;;;;-52
2019/07/01 02:26:41;;;;;;;2.82;2.60;;;;;;;23.69;57.07;100463.34;;;;-51
2019/07/01 02:29:41;;;;;;;2.79;2.58;;;;;;;23.70;57.03;100469.41;;;;-51
2019/07/01 02:32:41;;;;;;;2.83;2.63;;;;;;;23.70;57.05;100472.89;;;;-53
2019/07/01 02:35:41;;;;;;;3.35;2.80;;;;;;;23.69;57.07;100467.80;;;;-53
2019/07/01 02:38:41;;;;;;;3.01;2.76;;;;;;;23.69;57.02;100451.03;;;;-50
2019/07/01 02:41:41;;;;;;;3.18;2.79;;;;;;;23.69;57.03;100433.06;;;;-51
2019/07/01 02:44:41;;;;;;;2.89;2.69;;;;;;;23.69;57.09;100419.98;;;;-50
2019/07/01 02:47:41;;;;;;;3.09;2.77;;;;;;;23.69;57.04;100434.48;;;;-53
2019/07/01 02:50:42;;;;;;;3.09;2.78;;;;;;;23.68;57.02;100437.59;;;;-51
2019/07/01 02:53:41;;;;;;;2.79;2.59;;;;;;;23.68;57.06;100428.58;;;;-53
2019/07/01 02:56:41;;;;;;;2.99;2.64;;;;;;;23.69;57.02;100425.88;;;;-53
2019/07/01 02:59:41;;;;;;;2.83;2.63;;;;;;;23.68;57.06;100417.19;;;;-51
2019/07/01 03:02:41;;;;;;;3.19;2.67;;;;;;;23.68;57.05;100412.30;;;;-50
2019/07/01 03:05:41;;;;;;;3.07;2.77;;;;;;;23.68;57.05;100416.51;;;;-52
2019/07/01 03:08:42;;;;;;;2.80;2.60;;;;;;;23.68;57.02;100416.68;;;;-51
2019/07/01 03:11:41;;;;;;;2.89;2.68;;;;;;;23.68;57.05;100411.28;;;;-51
2019/07/01 03:14:41;;;;;;;2.75;2.55;;;;;;;23.68;57.05;100413.58;;;;-51
2019/07/01 03:17:41;;;;;;;2.70;2.50;;;;;;;23.67;57.05;100426.53;;;;-51
2019/07/01 03:20:41;;;;;;;2.69;2.49;;;;;;;23.67;57.07;100436.31;;;;-51
2019/07/01 03:23:41;;;;;;;2.81;2.61;;;;;;;23.67;57.06;100444.23;;;;-50
2019/07/01 03:26:42;;;;;;;2.92;2.65;;;;;;;23.68;57.07;100462.78;;;;-52
2019/07/01 03:29:42;;;;;;;2.80;2.59;;;;;;;23.67;57.06;100472.23;;;;-50
2019/07/01 03:32:41;;;;;;;2.87;2.67;;;;;;;23.67;57.08;100482.41;;;;-52
2019/07/01 03:35:41;;;;;;;2.83;2.63;;;;;;;23.67;57.07;100487.57;;;;-51
2019/07/01 03:38:41;;;;;;;2.99;2.70;;;;;;;23.67;57.09;100494.48;;;;-50
2019/07/01 03:41:41;;;;;;;2.99;2.75;;;;;;;23.66;57.10;100493.68;;;;-53
2019/07/01 03:44:41;;;;;;;2.82;2.62;;;;;;;23.67;57.10;100488.72;;;;-51
2019/07/01 03:47:41;;;;;;;2.89;2.60;;;;;;;23.67;57.11;100489.50;;;;-51
2019/07/01 03:50:41;;;;;;;2.80;2.60;;;;;;;23.66;57.07;100498.41;;;;-52
2019/07/01 03:53:41;;;;;;;2.81;2.61;;;;;;;23.66;57.11;100506.94;;;;-51
2019/07/01 03:56:42;;;;;;;2.90;2.70;;;;;;;23.66;57.08;100510.03;;;;-50
2019/07/01 03:59:41;;;;;;;3.09;2.77;;;;;;;23.66;57.10;100519.05;;;;-51
2019/07/01 04:02:40;;;;;;;2.87;2.65;;;;;;;23.66;57.10;100525.45;;;;-51
2019/07/01 04:05:41;;;;;;;2.87;2.67;;;;;;;23.66;57.09;100536.08;;;;-51
2019/07/01 04:08:42;;;;;;;3.39;2.73;;;;;;;23.66;57.10;100514.42;;;;-51
2019/07/01 04:11:41;;;;;;;7.11;3.19;;;;;;;23.65;57.28;100509.70;;;;-55
2019/07/01 04:14:41;;;;;;;3.11;2.71;;;;;;;23.65;57.12;100520.06;;;;-55
2019/07/01 04:17:41;;;;;;;3.84;2.74;;;;;;;23.66;57.17;100519.65;;;;-54
2019/07/01 04:20:41;;;;;;;4.22;2.57;;;;;;;23.66;57.13;100524.78;;;;-56
2019/07/01 04:23:41;;;;;;;3.33;2.64;;;;;;;23.65;57.12;100535.50;;;;-54
2019/07/01 04:26:41;;;;;;;4.31;2.75;;;;;;;23.65;57.10;100525.39;;;;-64
2019/07/01 04:29:41;;;;;;;3.78;2.99;;;;;;;23.65;57.11;100524.87;;;;-63
2019/07/01 04:32:41;;;;;;;3.15;2.85;;;;;;;23.65;57.11;100530.85;;;;-54
2019/07/01 04:35:42;;;;;;;3.11;2.79;;;;;;;23.65;57.13;100548.31;;;;-52
2019/07/01 04:38:41;;;;;;;2.86;2.65;;;;;;;23.65;57.17;100561.95;;;;-54
2019/07/01 04:41:41;;;;;;;4.08;3.10;;;;;;;23.65;57.15;100575.27;;;;-51
2019/07/01 04:44:41;;;;;;;3.29;2.98;;;;;;;23.64;57.16;100573.08;;;;-51
2019/07/01 04:47:41;;;;;;;3.61;2.95;;;;;;;23.65;57.13;100563.87;;;;-65
2019/07/01 04:50:41;;;;;;;3.71;2.99;;;;;;;23.65;57.19;100563.80;;;;-64
2019/07/01 04:53:40;;;;;;;3.25;2.89;;;;;;;23.65;57.10;100541.38;;;;-56
2019/07/01 04:56:41;;;;;;;3.53;3.23;;;;;;;23.64;57.13;100526.10;;;;-63
2019/07/01 04:59:41;;;;;;;3.47;3.18;;;;;;;23.64;57.13;100503.27;;;;-51
2019/07/01 05:02:41;;;;;;;3.48;3.18;;;;;;;23.63;57.13;100464.70;;;;-51
2019/07/01 05:05:41;;;;;;;4.29;3.41;;;;;;;23.64;57.15;100435.80;;;;-50
2019/07/01 05:08:41;;;;;;;3.66;3.34;;;;;;;23.64;57.04;100448.84;;;;-52
2019/07/01 05:11:41;;;;;;;3.89;3.51;;;;;;;23.64;57.15;100438.48;;;;-55
2019/07/01 05:14:41;;;;;;;3.67;3.37;;;;;;;23.63;57.09;100424.33;;;;-54
2019/07/01 05:17:41;;;;;;;3.57;3.27;;;;;;;23.64;57.14;100424.73;;;;-55
2019/07/01 05:20:41;;;;;;;3.69;3.39;;;;;;;23.64;57.11;100425.78;;;;-54
2019/07/01 05:23:41;;;;;;;3.79;3.47;;;;;;;23.63;57.10;100421.30;;;;-55
2019/07/01 05:26:41;;;;;;;3.65;3.35;;;;;;;23.64;57.16;100425.91;;;;-55
2019/07/01 05:29:41;;;;;;;3.73;3.43;;;;;;;23.64;57.11;100428.72;;;;-55
2019/07/01 05:32:41;;;;;;;3.70;3.40;;;;;;;23.64;57.14;100446.28;;;;-54
2019/07/01 05:35:41;;;;;;;4.82;3.55;;;;;;;23.64;57.09;100437.24;;;;-55
2019/07/01 05:38:41;;;;;;;3.65;3.35;;;;;;;23.63;57.11;100412.19;;;;-64
2019/07/01 05:41:40;;;;;;;3.75;3.45;;;;;;;23.64;57.14;100399.11;;;;-66
2019/07/01 05:44:41;;;;;;;3.74;3.44;;;;;;;23.63;57.11;100406.87;;;;-65
2019/07/01 05:47:41;;;;;;;3.89;3.58;;;;;;;23.63;57.09;100395.81;;;;-64
2019/07/01 05:50:41;;;;;;;3.86;3.51;;;;;;;23.63;57.11;100401.57;;;;-63
2019/07/01 05:53:41;;;;;;;3.74;3.44;;;;;;;23.63;57.12;100430.98;;;;-55
2019/07/01 05:56:41;;;;;;;3.93;3.63;;;;;;;23.64;57.11;100464.13;;;;-51
2019/07/01 05:59:41;;;;;;;3.81;3.51;;;;;;;23.64;57.11;100492.04;;;;-51
2019/07/01 06:02:41;;;;;;;3.93;3.63;;;;;;;23.64;57.14;100519.36;;;;-50
2019/07/01 06:05:41;;;;;;;3.71;3.41;;;;;;;23.64;57.16;100550.72;;;;-51
2019/07/01 06:08:41;;;;;;;3.88;3.58;;;;;;;23.64;57.16;100576.01;;;;-50
2019/07/01 06:11:41;;;;;;;3.71;3.41;;;;;;;23.65;57.17;100587.74;;;;-51
2019/07/01 06:14:41;;;;;;;4.65;3.47;;;;;;;23.66;57.22;100588.28;;;;-50
2019/07/01 06:17:41;;;;;;;3.90;3.49;;;;;;;23.67;57.33;100592.19;;;;-50
2019/07/01 06:20:41;;;;;;;4.79;3.65;;;;;;;23.68;57.21;100598.45;;;;-50
2019/07/01 06:23:41;;;;;;;3.69;3.39;;;;;;;23.70;57.31;100603.14;;;;-51
2019/07/01 06:26:41;;;;;;;4.62;3.69;;;;;;;23.72;57.83;100607.95;;;;-51
2019/07/01 06:29:40;;;;;;;6.75;3.89;;;;;;;23.71;57.43;100616.59;;;;-51
2019/07/01 06:32:41;;;;;;;4.18;3.78;;;;;;;23.72;57.40;100622.59;;;;-51
2019/07/01 06:35:41;;;;;;;4.11;3.59;;;;;;;23.71;57.41;100627.78;;;;-51
2019/07/01 06:38:41;;;;;;;4.42;3.99;;;;;;;23.70;57.42;100631.06;;;;-53
2019/07/01 06:41:41;;;;;;;4.10;3.59;;;;;;;23.70;57.39;100635.78;;;;-51
2019/07/01 06:44:41;;;;;;;4.13;3.74;;;;;;;23.71;57.34;100636.99;;;;-52
2019/07/01 06:47:41;;;;;;;4.79;3.87;;;;;;;23.70;57.29;100639.48;;;;-51
2019/07/01 06:50:41;;;;;;;11.61;3.75;;;;;;;23.71;57.85;100641.04;;;;-49
2019/07/01 06:53:41;;;;;;;4.17;3.77;;;;;;;23.72;57.74;100636.85;;;;-50
2019/07/01 06:56:41;;;;;;;10.14;3.96;;;;;;;23.73;57.94;100633.27;;;;-51
2019/07/01 06:59:41;;;;;;;5.43;4.14;;;;;;;23.74;57.87;100622.91;;;;-53
2019/07/01 07:02:41;;;;;;;5.49;4.11;;;;;;;23.77;57.74;100629.58;;;;-55
2019/07/01 07:05:41;;;;;;;4.71;3.77;;;;;;;23.79;57.80;100640.03;;;;-50
2019/07/01 07:08:41;;;;;;;6.27;3.93;;;;;;;23.80;57.82;100637.36;;;;-51
2019/07/01 07:11:41;;;;;;;4.46;3.82;;;;;;;23.82;58.68;100637.08;;;;-51
2019/07/01 07:14:41;;;;;;;5.55;3.77;;;;;;;23.82;57.83;100644.94;;;;-51
2019/07/01 07:17:41;;;;;;;4.45;4.02;;;;;;;23.82;57.82;100642.72;;;;-51
2019/07/01 07:20:41;;;;;;;4.45;4.05;;;;;;;23.82;57.78;100641.13;;;;-52
2019/07/01 07:23:41;;;;;;;4.57;4.16;;;;;;;23.82;57.71;100645.52;;;;-51
2019/07/01 07:26:41;;;;;;;4.13;3.79;;;;;;;23.82;57.69;100639.01;;;;-51
2019/07/01 07:29:41;;;;;;;4.25;3.85;;;;;;;23.82;57.57;100627.70;;;;-50
2019/07/01 07:32:40;;;;;;;4.45;3.99;;;;;;;23.81;57.57;100621.13;;;;-51
2019/07/01 07:35:40;;;;;;;4.77;4.03;;;;;;;23.81;57.57;100616.91;;;;-50
2019/07/01 07:38:40;;;;;;;4.51;4.14;;;;;;;23.82;57.54;100621.06;;;;-51
2019/07/01 07:41:41;;;;;;;4.35;3.93;;;;;;;23.82;57.46;100624.44;;;;-50
2019/07/01 07:44:41;;;;;;;7.05;4.01;;;;;;;23.83;57.86;100617.11;;;;-52
2019/07/01 07:47:41;;;;;;;4.67;4.03;;;;;;;23.83;57.84;100608.44;;;;-50
2019/07/01 07:50:41;;;;;;;5.77;3.83;;;;;;;23.84;57.85;100610.77;;;;-51
2019/07/01 07:53:41;;;;;;;4.56;4.05;;;;;;;23.85;57.99;100597.97;;;;-50
2019/07/01 07:56:41;;;;;;;7.86;4.31;;;;;;;23.86;58.01;100591.22;;;;-51
2019/07/01 07:59:41;;;;;;;8.68;4.24;;;;;;;23.88;58.76;100597.98;;;;-48
2019/07/01 08:02:41;;;;;;;9.45;5.28;;;;;;;23.89;58.36;100599.20;;;;-52
2019/07/01 08:05:41;;;;;;;6.40;4.47;;;;;;;23.91;58.21;100607.76;;;;-52
2019/07/01 08:08:41;;;;;;;6.45;4.51;;;;;;;23.93;58.17;100606.09;;;;-50
2019/07/01 08:11:41;;;;;;;7.93;4.53;;;;;;;23.94;58.05;100614.83;;;;-52
2019/07/01 08:14:41;;;;;;;6.13;4.57;;;;;;;23.96;58.05;100617.42;;;;-49
2019/07/01 08:17:41;;;;;;;6.33;4.31;;;;;;;23.97;58.02;100619.87;;;;-52
2019/07/01 08:20:41;;;;;;;7.77;4.89;;;;;;;23.98;58.13;100605.84;;;;-52
2019/07/01 08:23:40;;;;;;;9.02;4.45;;;;;;;23.99;58.05;100596.82;;;;-50
2019/07/01 08:26:41;;;;;;;8.63;4.46;;;;;;;24.00;57.82;100598.97;;;;-60
2019/07/01 08:29:41;;;;;;;6.95;4.27;;;;;;;24.00;57.78;100598.63;;;;-58
2019/07/01 08:32:41;;;;;;;5.33;4.35;;;;;;;24.02;57.74;100580.88;;;;-61
2019/07/01 08:35:40;;;;;;;6.30;4.61;;;;;;;24.02;57.93;100579.02;;;;-64
2019/07/01 08:38:41;;;;;;;7.73;4.37;;;;;;;24.02;57.98;100574.91;;;;-61
2019/07/01 08:41:41;;;;;;;6.29;4.21;;;;;;;24.02;58.01;100575.23;;;;-61
2019/07/01 08:44:41;;;;;;;5.33;4.32;;;;;;;24.04;57.92;100580.36;;;;-56
2019/07/01 08:47:41;;;;;;;7.85;4.33;;;;;;;24.04;57.95;100580.77;;;;-54
2019/07/01 08:50:41;;;;;;;7.22;4.47;;;;;;;24.06;57.92;100589.49;;;;-51
2019/07/01 08:53:41;;;;;;;5.09;4.20;;;;;;;24.06;57.88;100575.66;;;;-51
2019/07/01 08:56:41;;;;;;;5.90;4.10;;;;;;;24.06;57.94;100563.00;;;;-50
2019/07/01 08:59:41;;;;;;;5.06;4.37;;;;;;;24.07;57.85;100557.90;;;;-48
2019/07/01 09:02:41;;;;;;;5.98;4.36;;;;;;;24.08;57.79;100539.77;;;;-53
2019/07/01 09:05:41;;;;;;;6.09;4.33;;;;;;;24.08;57.92;100519.29;;;;-50
2019/07/01 09:08:41;;;;;;;5.27;4.77;;;;;;;24.07;57.93;100510.72;;;;-51
2019/07/01 09:11:40;;;;;;;13.36;5.95;;;;;;;24.06;57.93;100554.66;;;;-51
2019/07/01 09:14:40;;;;;;;8.95;6.23;;;;;;;24.07;57.87;100560.27;;;;-51
2019/07/01 09:17:41;;;;;;;10.67;5.81;;;;;;;24.07;57.89;100551.82;;;;-50
2019/07/01 09:20:41;;;;;;;6.67;5.38;;;;;;;24.07;57.99;100560.50;;;;-50
2019/07/01 09:23:41;;;;;;;8.55;5.39;;;;;;;24.07;57.92;100487.20;;;;-51
2019/07/01 09:26:41;;;;;;;8.53;5.32;;;;;;;24.06;57.82;100589.93;;;;-50
2019/07/01 09:29:41;;;;;;;8.43;5.32;;;;;;;24.05;57.79;100579.10;;;;-51
2019/07/01 09:32:41;;;;;;;8.31;5.21;;;;;;;24.05;57.74;100591.59;;;;-51
2019/07/01 09:35:41;;;;;;;5.39;4.75;;;;;;;24.03;57.68;100605.47;;;;-50
2019/07/01 09:38:41;;;;;;;5.69;5.10;;;;;;;24.02;57.64;100604.09;;;;-50
2019/07/01 09:41:41;;;;;;;6.97;5.03;;;;;;;24.02;57.67;100589.31;;;;-50
2019/07/01 09:44:41;;;;;;;8.51;5.37;;;;;;;24.01;57.64;100601.94;;;;-50
2019/07/01 09:47:41;;;;;;;5.62;4.99;;;;;;;24.00;57.58;100614.83;;;;-51
2019/07/01 09:50:41;;;;;;;8.65;5.14;;;;;;;23.99;57.56;100620.20;;;;-50
2019/07/01 09:53:41;;;;;;;5.67;4.82;;;;;;;23.98;57.53;100612.41;;;;-50
2019/07/01 09:56:41;;;;;;;5.30;4.61;;;;;;;23.97;57.50;100611.38;;;;-50
2019/07/01 09:59:41;;;;;;;6.15;4.93;;;;;;;23.96;57.48;100626.29;;;;-50
2019/07/01 10:02:41;;;;;;;6.77;4.85;;;;;;;23.96;57.42;100636.14;;;;-50
2019/07/01 10:05:41;;;;;;;7.16;4.90;;;;;;;23.96;57.47;100631.66;;;;-51
2019/07/01 10:08:41;;;;;;;6.05;4.99;;;;;;;23.95;57.44;100626.27;;;;-50
2019/07/01 10:11:41;;;;;;;6.15;5.24;;;;;;;23.94;57.43;100624.61;;;;-50
2019/07/01 10:14:41;;;;;;;6.48;5.07;;;;;;;23.94;57.39;100620.30;;;;-51
2019/07/01 10:17:40;;;;;;;5.45;4.93;;;;;;;23.93;57.41;100620.53;;;;-54
2019/07/01 10:20:40;;;;;;;7.29;4.77;;;;;;;23.92;57.38;100619.83;;;;-55
2019/07/01 10:23:41;;;;;;;5.33;4.81;;;;;;;23.92;57.40;100636.63;;;;-54
2019/07/01 10:26:41;;;;;;;5.33;4.83;;;;;;;23.92;57.35;100646.55;;;;-54
2019/07/01 10:29:41;;;;;;;5.27;4.77;;;;;;;23.91;57.36;100656.24;;;;-54
2019/07/01 10:32:41;;;;;;;5.19;4.53;;;;;;;23.89;57.50;100655.10;;;;-59
2019/07/01 10:35:41;;;;;;;8.27;5.17;;;;;;;23.92;57.79;100644.97;;;;-57
2019/07/01 10:38:41;;;;;;;6.21;4.99;;;;;;;23.90;57.89;100630.84;;;;-57
2019/07/01 10:41:41;;;;;;;8.53;5.20;;;;;;;23.90;57.97;100626.02;;;;-58
2019/07/01 10:44:41;;;;;;;6.28;5.43;;;;;;;23.90;58.02;100617.14;;;;-57
2019/07/01 10:47:41;;;;;;;6.19;5.49;;;;;;;23.91;58.02;100615.66;;;;-58
2019/07/01 10:50:41;;;;;;;6.35;5.44;;;;;;;23.90;58.06;100605.44;;;;-58
2019/07/01 10:53:41;;;;;;;7.62;5.45;;;;;;;23.91;58.01;100591.47;;;;-54
2019/07/01 10:56:40;;;;;;;6.12;5.55;;;;;;;23.92;57.96;100586.43;;;;-55
2019/07/01 10:59:41;;;;;;;8.99;5.77;;;;;;;23.94;58.34;100573.59;;;;-55
2019/07/01 11:02:41;;;;;;;7.36;5.61;;;;;;;23.95;58.19;100568.13;;;;-51
2019/07/01 11:05:40;;;;;;;6.98;5.57;;;;;;;23.95;58.22;100577.74;;;;-54
2019/07/01 11:08:40;;;;;;;8.43;5.28;;;;;;;23.96;58.15;100585.94;;;;-54
2019/07/01 11:11:40;;;;;;;6.89;5.55;;;;;;;23.95;58.03;100584.16;;;;-54
2019/07/01 11:14:40;;;;;;;6.07;5.43;;;;;;;23.96;58.11;100592.89;;;;-52
2019/07/01 11:17:40;;;;;;;7.41;5.47;;;;;;;23.97;58.22;100596.19;;;;-53
2019/07/01 11:20:40;;;;;;;6.75;5.46;;;;;;;23.98;58.10;100598.48;;;;-52
2019/07/01 11:23:40;;;;;;;6.94;5.64;;;;;;;23.99;58.28;100607.89;;;;-52
2019/07/01 11:26:40;;;;;;;9.74;5.59;;;;;;;24.01;58.02;100608.52;;;;-56
2019/07/01 11:29:41;;;;;;;8.09;5.59;;;;;;;24.02;58.09;100602.98;;;;-55
2019/07/01 11:32:41;;;;;;;11.53;5.75;;;;;;;24.02;58.06;100607.53;;;;-54
2019/07/01 11:35:40;;;;;;;8.23;5.68;;;;;;;24.02;58.05;100609.83;;;;-55
2019/07/01 11:38:40;;;;;;;6.49;5.51;;;;;;;24.03;58.16;100605.64;;;;-57
2019/07/01 11:41:40;;;;;;;7.39;5.51;;;;;;;24.03;58.10;100601.83;;;;-54
2019/07/01 11:44:40;;;;;;;6.30;5.32;;;;;;;24.03;58.11;100600.07;;;;-57
2019/07/01 11:47:40;;;;;;;7.15;5.49;;;;;;;24.04;58.04;100609.28;;;;-55
2019/07/01 11:50:40;;;;;;;6.53;5.63;;;;;;;24.04;58.14;100602.70;;;;-55
2019/07/01 11:53:40;;;;;;;6.67;5.27;;;;;;;24.05;58.00;100606.10;;;;-56
2019/07/01 11:56:40;;;;;;;6.19;5.42;;;;;;;24.05;58.00;100607.72;;;;-56
2019/07/01 11:59:40;;;;;;;6.09;5.19;;;;;;;24.06;57.97;100594.75;;;;-55
2019/07/01 12:02:40;;;;;;;5.83;5.02;;;;;;;24.08;57.94;100589.65;;;;-56
2019/07/01 12:05:40;;;;;;;7.71;5.39;;;;;;;24.08;57.75;100584.83;;;;-55
2019/07/01 12:08:40;;;;;;;6.41;5.23;;;;;;;24.09;57.76;100576.52;;;;-55
2019/07/01 12:11:40;;;;;;;6.91;5.21;;;;;;;24.09;57.76;100573.98;;;;-55
2019/07/01 12:14:40;;;;;;;6.10;4.95;;;;;;;24.09;57.73;100553.40;;;;-56
2019/07/01 12:17:40;;;;;;;6.67;5.15;;;;;;;24.08;57.64;100559.11;;;;-55
2019/07/01 12:20:40;;;;;;;6.55;4.99;;;;;;;24.09;57.63;100552.89;;;;-53
2019/07/01 12:23:40;;;;;;;6.06;5.28;;;;;;;24.08;57.60;100547.80;;;;-55
2019/07/01 12:26:40;;;;;;;5.99;5.23;;;;;;;24.07;57.57;100536.41;;;;-55
2019/07/01 12:29:40;;;;;;;6.11;4.93;;;;;;;24.07;57.58;100541.87;;;;-55
2019/07/01 12:32:40;;;;;;;6.61;5.15;;;;;;;24.07;57.54;100547.44;;;;-54
2019/07/01 12:35:40;;;;;;;6.17;5.06;;;;;;;24.07;57.50;100549.70;;;;-54
2019/07/01 12:38:40;;;;;;;5.28;4.79;;;;;;;24.06;57.50;100548.76;;;;-55
2019/07/01 12:41:40;;;;;;;6.14;5.39;;;;;;;24.06;57.50;100554.16;;;;-55
2019/07/01 12:44:40;;;;;;;5.71;5.15;;;;;;;24.06;57.49;100555.41;;;;-55
2019/07/01 12:47:40;;;;;;;6.03;5.21;;;;;;;24.05;57.48;100571.52;;;;-55
2019/07/01 12:50:40;;;;;;;6.07;4.82;;;;;;;24.06;57.44;100577.11;;;;-55
2019/07/01 12:53:40;;;;;;;7.66;5.02;;;;;;;24.06;57.52;100583.35;;;;-54
2019/07/01 12:56:40;;;;;;;7.25;5.24;;;;;;;24.05;57.78;100582.91;;;;-56
2019/07/01 12:59:40;;;;;;;7.09;4.87;;;;;;;24.05;57.65;100583.92;;;;-54
2019/07/01 13:02:40;;;;;;;6.89;4.91;;;;;;;24.07;57.69;100580.58;;;;-54
2019/07/01 13:05:40;;;;;;;7.35;4.89;;;;;;;24.08;57.60;100567.98;;;;-50
2019/07/01 13:08:40;;;;;;;5.38;4.88;;;;;;;24.09;57.61;100555.08;;;;-50
2019/07/01 13:11:40;;;;;;;5.60;5.08;;;;;;;24.10;57.53;100538.50;;;;-53
2019/07/01 13:14:40;;;;;;;5.69;5.19;;;;;;;24.11;57.63;100537.35;;;;-54
2019/07/01 13:17:40;;;;;;;6.54;5.01;;;;;;;24.12;57.62;100522.36;;;;-51
2019/07/01 13:20:40;;;;;;;5.26;4.77;;;;;;;24.13;57.61;100522.28;;;;-50
2019/07/01 13:23:40;;;;;;;5.42;4.67;;;;;;;24.13;57.82;100513.01;;;;-51
2019/07/01 13:26:40;;;;;;;5.62;4.82;;;;;;;24.14;57.85;100521.91;;;;-50
2019/07/01 13:29:40;;;;;;;5.98;5.31;;;;;;;24.15;57.77;100524.09;;;;-50
2019/07/01 13:32:40;;;;;;;5.54;5.04;;;;;;;24.16;57.67;100511.13;;;;-51
2019/07/01 13:35:40;;;;;;;5.29;4.85;;;;;;;24.16;57.76;100492.09;;;;-53
2019/07/01 13:38:42;;;;;;;6.08;5.11;;;;;;;24.16;57.56;100494.45;;;;-53
2019/07/01 13:41:40;;;;;;;5.61;4.84;;;;;;;24.16;57.61;100502.86;;;;-54
2019/07/01 13:44:40;;;;;;;7.61;4.75;;;;;;;24.16;57.61;100493.65;;;;-53
2019/07/01 13:47:40;;;;;;;6.13;4.75;;;;;;;24.15;57.56;100474.48;;;;-53
2019/07/01 13:50:40;;;;;;;5.69;4.95;;;;;;;24.14;57.52;100464.94;;;;-53
2019/07/01 13:53:40;;;;;;;5.21;4.61;;;;;;;24.13;57.51;100481.72;;;;-53
2019/07/01 13:56:40;;;;;;;5.07;4.61;;;;;;;24.13;57.48;100477.91;;;;-54
2019/07/01 13:59:40;;;;;;;5.17;4.68;;;;;;;24.13;57.45;100470.75;;;;-54
2019/07/01 14:02:40;;;;;;;7.57;4.57;;;;;;;24.11;57.66;100474.58;;;;-53
2019/07/01 14:05:40;;;;;;;5.70;4.76;;;;;;;24.12;57.85;100490.03;;;;-51
2019/07/01 14:08:40;;;;;;;7.63;5.15;;;;;;;24.14;57.80;100489.48;;;;-50
2019/07/01 14:11:40;;;;;;;8.66;4.95;;;;;;;24.14;57.88;100484.25;;;;-53
2019/07/01 14:14:40;;;;;;;12.19;5.16;;;;;;;24.17;57.90;100490.98;;;;-53
2019/07/01 14:17:40;;;;;;;10.05;4.89;;;;;;;24.19;57.84;100490.31;;;;-52
2019/07/01 14:20:40;;;;;;;10.88;5.09;;;;;;;24.22;58.21;100493.33;;;;-51
2019/07/01 14:23:40;;;;;;;12.53;5.24;;;;;;;24.24;58.12;100499.80;;;;-51
2019/07/01 14:26:41;;;;;;;9.73;5.01;;;;;;;24.26;58.32;100512.50;;;;-50
2019/07/01 14:29:41;;;;;;;11.32;4.91;;;;;;;24.28;58.12;100506.55;;;;-50
2019/07/01 14:32:41;;;;;;;9.43;4.70;;;;;;;24.29;57.95;100508.26;;;;-50
2019/07/01 14:35:41;;;;;;;14.94;4.89;;;;;;;24.30;57.94;100507.27;;;;-50
2019/07/01 14:38:40;;;;;;;12.29;4.92;;;;;;;24.30;58.12;100512.91;;;;-51
2019/07/01 14:41:40;;;;;;;13.56;4.78;;;;;;;24.31;58.04;100510.73;;;;-50
2019/07/01 14:44:41;;;;;;;10.90;5.00;;;;;;;24.31;58.03;100504.09;;;;-49
2019/07/01 14:47:40;;;;;;;6.86;4.70;;;;;;;24.27;57.86;100508.54;;;;-51
2019/07/01 14:50:40;;;;;;;8.61;5.24;;;;;;;24.27;58.02;100499.77;;;;-52
2019/07/01 14:53:41;;;;;;;8.95;4.85;;;;;;;24.28;57.87;100501.92;;;;-47
2019/07/01 14:56:41;;;;;;;8.33;4.55;;;;;;;24.29;57.93;100486.75;;;;-47
2019/07/01 14:59:40;;;;;;;6.73;4.93;;;;;;;24.30;58.04;100483.64;;;;-52
2019/07/01 15:02:40;;;;;;;7.63;4.81;;;;;;;24.31;57.89;100478.67;;;;-50
2019/07/01 15:05:41;;;;;;;8.88;4.73;;;;;;;24.31;58.08;100471.01;;;;-51
2019/07/01 15:08:40;;;;;;;9.35;4.59;;;;;;;24.32;58.11;100461.81;;;;-52
2019/07/01 15:11:40;;;;;;;7.83;4.65;;;;;;;24.32;58.11;100461.31;;;;-52
2019/07/01 15:14:40;;;;;;;6.56;4.56;;;;;;;24.33;58.08;100458.56;;;;-54
2019/07/01 15:17:40;;;;;;;8.09;4.49;;;;;;;24.34;58.05;100452.25;;;;-54
2019/07/01 15:20:40;;;;;;;5.84;4.81;;;;;;;24.34;57.93;100441.88;;;;-56
2019/07/01 15:23:40;;;;;;;6.49;4.69;;;;;;;24.35;57.83;100439.10;;;;-51
2019/07/01 15:26:40;;;;;;;9.47;4.60;;;;;;;24.34;57.80;100440.86;;;;-53
2019/07/01 15:29:40;;;;;;;6.90;4.73;;;;;;;24.33;57.68;100443.87;;;;-51
2019/07/01 15:32:40;;;;;;;7.52;4.49;;;;;;;24.32;57.73;100449.25;;;;-52
2019/07/01 15:35:40;;;;;;;8.27;4.91;;;;;;;24.31;57.77;100442.82;;;;-57
2019/07/01 15:38:40;;;;;;;6.66;4.47;;;;;;;24.31;57.74;100449.30;;;;-53
2019/07/01 15:48:53;;;;;;;7.83;4.44;;;;;;;24.60;57.20;100440.30;;;;-53
2019/07/01 15:51:53;;;;;;;12.17;4.65;;;;;;;24.65;56.94;100439.33;;;;-56
2019/07/01 15:59:07;;;;;;;5.77;4.63;;;;;;;24.73;56.83;100434.25;;;;-51
2019/07/01 16:02:07;;;;;;;7.23;4.39;;;;;;;24.76;56.68;100427.90;;;;-52
2019/07/01 16:05:07;;;;;;;11.10;4.71;;;;;;;24.79;56.54;100423.74;;;;-55
2019/07/01 16:12:07;;;;;;;7.49;4.49;;;;;;;24.86;56.47;100449.64;;;;-56
2019/07/01 16:15:07;;;;;;;6.81;4.55;;;;;;;24.88;56.31;100456.55;;;;-55
2019/07/01 16:18:07;;;;;;;6.05;4.20;;;;;;;24.91;56.36;100450.77;;;;-53
2019/07/01 16:21:07;;;;;;;6.50;4.48;;;;;;;24.92;56.22;100450.45;;;;-56
2019/07/01 16:24:07;;;;;;;4.97;4.31;;;;;;;24.96;56.13;100459.42;;;;-43
2019/07/01 16:27:07;;;;;;;7.05;4.40;;;;;;;24.96;56.14;100451.39;;;;-43
2019/07/01 16:30:07;;;;;;;5.46;4.26;;;;;;;24.96;56.03;100450.80;;;;-43
2019/07/01 16:33:09;;;;;;;6.74;4.13;;;;;;;24.97;55.99;100448.03;;;;-45
2019/07/01 16:39:26;;;;;;;4.97;4.43;;;;;;;24.97;56.11;100435.86;;;;-43
2019/07/01 16:42:26;;;;;;;6.05;4.20;;;;;;;24.98;55.88;100429.47;;;;-44
2019/07/01 16:45:26;;;;;;;6.07;4.32;;;;;;;24.98;56.08;100426.09;;;;-42
2019/07/01 16:48:26;;;;;;;5.49;4.30;;;;;;;24.91;56.19;100447.48;;;;-45
2019/07/01 16:51:26;;;;;;;9.15;4.83;;;;;;;24.90;56.29;100451.42;;;;-42
2019/07/01 16:54:26;;;;;;;7.88;4.47;;;;;;;24.88;56.16;100466.59;;;;-45
2019/07/01 16:57:26;;;;;;;6.55;4.13;;;;;;;24.93;56.03;100475.92;;;;-44
2019/07/01 17:00:26;;;;;;;6.71;4.25;;;;;;;24.95;56.07;100468.09;;;;-43